sensor_id;sensor_type;location;lat;lon;timestamp;pressure;altitude;pressure_sealevel;temperature;humidity
77223;BME280;66218;48.928;9.140;2023-01-15T00:01:01;97346.16;;;11.63;69.05
77223;BME280;66218;48.928;9.140;2023-01-15T00:03:27;97325.38;;;11.62;69.57
77223;BME280;66218;48.928;9.140;2023-01-15T00:05:53;97306.13;;;11.53;68.82
77223;BME280;66218;48.928;9.140;2023-01-15T00:08:19;97315.50;;;11.65;69.29
77223;BME280;66218;48.928;9.140;2023-01-15T00:10:44;97318.66;;;11.69;69.05
77223;BME280;66218;48.928;9.140;2023-01-15T00:13:10;97293.59;;;11.57;68.88
77223;BME280;66218;48.928;9.140;2023-01-15T00:15:35;97303.94;;;11.68;69.28
77223;BME280;66218;48.928;9.140;2023-01-15T00:18:01;97307.38;;;11.68;69.58
77223;BME280;66218;48.928;9.140;2023-01-15T00:20:27;97309.16;;;11.68;69.43
77223;BME280;66218;48.928;9.140;2023-01-15T00:22:53;97296.38;;;11.65;69.48
77223;BME280;66218;48.928;9.140;2023-01-15T00:25:18;97299.53;;;11.68;69.39
77223;BME280;66218;48.928;9.140;2023-01-15T00:28:07;97286.47;;;11.68;69.56
77223;BME280;66218;48.928;9.140;2023-01-15T00:30:32;97286.34;;;11.70;69.06
77223;BME280;66218;48.928;9.140;2023-01-15T00:32:57;97267.91;;;11.71;69.08
77223;BME280;66218;48.928;9.140;2023-01-15T00:35:23;97271.75;;;11.77;69.11
77223;BME280;66218;48.928;9.140;2023-01-15T00:37:49;97278.63;;;11.78;68.92
77223;BME280;66218;48.928;9.140;2023-01-15T00:40:16;97274.38;;;11.77;69.03
77223;BME280;66218;48.928;9.140;2023-01-15T00:42:42;97269.00;;;11.78;69.01
77223;BME280;66218;48.928;9.140;2023-01-15T00:45:09;97265.41;;;11.79;68.83
77223;BME280;66218;48.928;9.140;2023-01-15T00:47:55;97260.03;;;11.81;68.91
77223;BME280;66218;48.928;9.140;2023-01-15T00:50:20;97265.00;;;11.84;68.82
77223;BME280;66218;48.928;9.140;2023-01-15T00:52:45;97258.78;;;11.85;68.67
77223;BME280;66218;48.928;9.140;2023-01-15T00:55:11;97246.81;;;11.82;68.47
77223;BME280;66218;48.928;9.140;2023-01-15T00:57:36;97252.44;;;11.87;68.49
77223;BME280;66218;48.928;9.140;2023-01-15T01:00:03;97252.31;;;11.89;68.45
77223;BME280;66218;48.928;9.140;2023-01-15T01:02:28;97244.75;;;11.86;68.92
77223;BME280;66218;48.928;9.140;2023-01-15T01:04:53;97247.34;;;11.86;68.85
77223;BME280;66218;48.928;9.140;2023-01-15T01:07:19;97241.47;;;11.84;69.02
77223;BME280;66218;48.928;9.140;2023-01-15T01:09:45;97239.81;;;11.83;69.19
77223;BME280;66218;48.928;9.140;2023-01-15T01:12:10;97238.97;;;11.82;68.80
77223;BME280;66218;48.928;9.140;2023-01-15T01:14:36;97244.34;;;11.90;68.68
77223;BME280;66218;48.928;9.140;2023-01-15T01:17:02;97248.31;;;11.94;68.55
77223;BME280;66218;48.928;9.140;2023-01-15T01:19:28;97225.06;;;11.91;68.53
77223;BME280;66218;48.928;9.140;2023-01-15T01:21:53;97224.91;;;11.93;68.18
77223;BME280;66218;48.928;9.140;2023-01-15T01:24:22;97230.16;;;11.93;67.96
77223;BME280;66218;48.928;9.140;2023-01-15T01:26:48;97232.22;;;11.99;68.20
77223;BME280;66218;48.928;9.140;2023-01-15T01:29:15;97237.94;;;12.02;68.18
77223;BME280;66218;48.928;9.140;2023-01-15T01:31:40;97238.63;;;12.04;67.69
77223;BME280;66218;48.928;9.140;2023-01-15T01:34:06;97229.31;;;12.02;67.74
77223;BME280;66218;48.928;9.140;2023-01-15T01:36:33;97225.84;;;12.01;67.64
77223;BME280;66218;48.928;9.140;2023-01-15T01:39:00;97225.41;;;12.06;67.23
77223;BME280;66218;48.928;9.140;2023-01-15T01:41:26;97222.53;;;12.09;67.33
77223;BME280;66218;48.928;9.140;2023-01-15T01:44:03;97223.88;;;12.13;67.18
77223;BME280;66218;48.928;9.140;2023-01-15T01:46:31;97217.72;;;12.14;67.04
77223;BME280;66218;48.928;9.140;2023-01-15T01:49:09;97217.41;;;12.17;67.33
77223;BME280;66218;48.928;9.140;2023-01-15T01:51:40;97210.25;;;12.19;67.06
77223;BME280;66218;48.928;9.140;2023-01-15T01:54:08;97200.88;;;12.16;67.36
77223;BME280;66218;48.928;9.140;2023-01-15T01:56:35;97198.38;;;12.24;67.12
77223;BME280;66218;48.928;9.140;2023-01-15T01:59:01;97202.50;;;12.27;67.29
77223;BME280;66218;48.928;9.140;2023-01-15T02:01:28;97176.34;;;12.17;66.91
77223;BME280;66218;48.928;9.140;2023-01-15T02:03:53;97190.91;;;12.29;67.00
77223;BME280;66218;48.928;9.140;2023-01-15T02:06:20;97191.44;;;12.33;66.87
77223;BME280;66218;48.928;9.140;2023-01-15T02:08:47;97188.81;;;12.33;67.00
77223;BME280;66218;48.928;9.140;2023-01-15T02:11:16;97183.28;;;12.36;67.30
77223;BME280;66218;48.928;9.140;2023-01-15T02:13:54;97182.50;;;12.35;67.69
77223;BME280;66218;48.928;9.140;2023-01-15T02:16:42;97186.75;;;12.36;67.45
77223;BME280;66218;48.928;9.140;2023-01-15T02:27:21;97177.34;;;12.43;67.64
77223;BME280;66218;48.928;9.140;2023-01-15T02:29:55;97182.44;;;12.45;67.41
77223;BME280;66218;48.928;9.140;2023-01-15T02:32:31;97111.19;;;12.06;67.61
77223;BME280;66218;48.928;9.140;2023-01-15T02:35:03;97175.25;;;12.47;67.56
77223;BME280;66218;48.928;9.140;2023-01-15T02:37:33;97166.03;;;12.43;67.78
77223;BME280;66218;48.928;9.140;2023-01-15T02:40:01;97164.63;;;12.48;67.92
77223;BME280;66218;48.928;9.140;2023-01-15T02:42:30;97169.88;;;12.48;68.52
77223;BME280;66218;48.928;9.140;2023-01-15T02:44:57;97177.88;;;12.47;68.59
77223;BME280;66218;48.928;9.140;2023-01-15T02:47:29;97183.91;;;12.47;68.03
77223;BME280;66218;48.928;9.140;2023-01-15T02:49:59;97173.91;;;12.43;68.45
77223;BME280;66218;48.928;9.140;2023-01-15T02:52:29;97167.72;;;12.44;68.65
77223;BME280;66218;48.928;9.140;2023-01-15T02:55:04;97159.72;;;12.45;68.63
77223;BME280;66218;48.928;9.140;2023-01-15T02:57:33;97162.47;;;12.44;68.86
77223;BME280;66218;48.928;9.140;2023-01-15T03:00:06;97169.78;;;12.40;69.17
77223;BME280;66218;48.928;9.140;2023-01-15T03:02:37;97156.03;;;12.38;69.21
77223;BME280;66218;48.928;9.140;2023-01-15T03:05:07;97160.28;;;12.39;69.28
77223;BME280;66218;48.928;9.140;2023-01-15T03:07:51;97147.03;;;12.41;69.43
77223;BME280;66218;48.928;9.140;2023-01-15T03:10:22;97145.25;;;12.41;69.10
77223;BME280;66218;48.928;9.140;2023-01-15T03:12:56;97138.53;;;12.39;69.16
77223;BME280;66218;48.928;9.140;2023-01-15T03:15:41;97138.25;;;12.42;68.96
77223;BME280;66218;48.928;9.140;2023-01-15T03:18:28;97133.81;;;12.42;69.07
77223;BME280;66218;48.928;9.140;2023-01-15T03:20:59;97126.94;;;12.41;69.21
77223;BME280;66218;48.928;9.140;2023-01-15T03:23:27;97130.41;;;12.42;68.72
77223;BME280;66218;48.928;9.140;2023-01-15T03:25:54;97120.88;;;12.41;68.87
77223;BME280;66218;48.928;9.140;2023-01-15T03:28:23;97125.00;;;12.43;68.86
77223;BME280;66218;48.928;9.140;2023-01-15T03:30:50;97101.97;;;12.29;68.99
77223;BME280;66218;48.928;9.140;2023-01-15T03:33:16;97117.31;;;12.42;68.57
77223;BME280;66218;48.928;9.140;2023-01-15T03:38:14;97121.00;;;12.49;68.74
77223;BME280;66218;48.928;9.140;2023-01-15T03:43:20;97095.69;;;12.40;68.74
77223;BME280;66218;48.928;9.140;2023-01-15T03:46:16;97118.06;;;12.52;68.37
77223;BME280;66218;48.928;9.140;2023-01-15T03:48:55;97113.78;;;12.51;68.76
77223;BME280;66218;48.928;9.140;2023-01-15T03:51:34;97123.84;;;12.55;68.61
77223;BME280;66218;48.928;9.140;2023-01-15T03:54:06;97122.00;;;12.56;69.05
77223;BME280;66218;48.928;9.140;2023-01-15T03:56:41;97113.50;;;12.54;69.00
77223;BME280;66218;48.928;9.140;2023-01-15T03:59:18;97112.69;;;12.53;69.73
77223;BME280;66218;48.928;9.140;2023-01-15T04:01:45;97118.75;;;12.54;69.76
77223;BME280;66218;48.928;9.140;2023-01-15T04:04:14;97105.66;;;12.54;69.89
77223;BME280;66218;48.928;9.140;2023-01-15T04:06:41;97103.31;;;12.51;70.08
77223;BME280;66218;48.928;9.140;2023-01-15T04:09:09;97104.16;;;12.51;69.71
77223;BME280;66218;48.928;9.140;2023-01-15T04:11:35;97083.53;;;12.48;69.78
77223;BME280;66218;48.928;9.140;2023-01-15T04:14:01;97089.72;;;12.47;69.34
77223;BME280;66218;48.928;9.140;2023-01-15T04:16:29;97096.59;;;12.48;69.40
77223;BME280;66218;48.928;9.140;2023-01-15T04:18:54;97089.59;;;12.49;69.15
77223;BME280;66218;48.928;9.140;2023-01-15T04:21:20;97078.81;;;12.52;69.12
77223;BME280;66218;48.928;9.140;2023-01-15T04:23:46;97075.22;;;12.53;68.70
77223;BME280;66218;48.928;9.140;2023-01-15T04:26:12;97065.06;;;12.50;69.07
77223;BME280;66218;48.928;9.140;2023-01-15T04:28:37;97073.88;;;12.49;68.99
77223;BME280;66218;48.928;9.140;2023-01-15T04:31:03;97059.97;;;12.48;69.09
77223;BME280;66218;48.928;9.140;2023-01-15T04:33:28;97060.66;;;12.50;69.02
77223;BME280;66218;48.928;9.140;2023-01-15T04:35:54;97070.44;;;12.48;68.92
77223;BME280;66218;48.928;9.140;2023-01-15T04:38:19;97066.53;;;12.52;68.89
77223;BME280;66218;48.928;9.140;2023-01-15T04:40:44;97069.81;;;12.54;68.58
77223;BME280;66218;48.928;9.140;2023-01-15T04:43:28;97063.25;;;12.50;68.54
77223;BME280;66218;48.928;9.140;2023-01-15T04:46:12;97062.97;;;12.53;68.84
77223;BME280;66218;48.928;9.140;2023-01-15T04:48:38;97070.34;;;12.58;68.60
77223;BME280;66218;48.928;9.140;2023-01-15T04:51:05;97069.41;;;12.59;68.93
77223;BME280;66218;48.928;9.140;2023-01-15T04:53:32;97065.50;;;12.45;69.10
77223;BME280;66218;48.928;9.140;2023-01-15T04:56:04;97144.09;;;12.53;69.58
77223;BME280;66218;48.928;9.140;2023-01-15T04:58:31;97184.47;;;11.12;81.67
77223;BME280;66218;48.928;9.140;2023-01-15T05:00:57;97196.03;;;9.42;92.07
77223;BME280;66218;48.928;9.140;2023-01-15T05:04:23;60693.31;;;-140.73;100.00
77223;BME280;66218;48.928;9.140;2023-01-15T05:06:48;60693.31;;;-140.73;100.00
77223;BME280;66218;48.928;9.140;2023-01-15T05:09:14;60693.31;;;-140.73;100.00
77223;BME280;66218;48.928;9.140;2023-01-15T05:11:46;60693.31;;;-140.73;100.00
77223;BME280;66218;48.928;9.140;2023-01-15T05:14:12;60693.31;;;-140.73;100.00
77223;BME280;66218;48.928;9.140;2023-01-15T05:16:37;60693.31;;;-140.73;100.00
77223;BME280;66218;48.928;9.140;2023-01-15T05:19:04;60693.31;;;-140.73;100.00
77223;BME280;66218;48.928;9.140;2023-01-15T05:21:34;60693.31;;;-140.73;100.00
77223;BME280;66218;48.928;9.140;2023-01-15T05:25:00;60693.31;;;-140.73;100.00
77223;BME280;66218;48.928;9.140;2023-01-15T05:28:24;60693.31;;;-140.73;100.00
77223;BME280;66218;48.928;9.140;2023-01-15T05:31:48;60693.31;;;-140.73;100.00
77223;BME280;66218;48.928;9.140;2023-01-15T05:35:11;60693.31;;;-140.73;100.00
77223;BME280;66218;48.928;9.140;2023-01-15T05:38:35;60693.31;;;-140.73;100.00
77223;BME280;66218;48.928;9.140;2023-01-15T05:41:48;60693.31;;;-140.73;100.00
77223;BME280;66218;48.928;9.140;2023-01-15T05:44:21;97112.00;;;23.93;88.93
77223;BME280;66218;48.928;9.140;2023-01-15T05:46:48;97242.78;;;35.20;80.34
77223;BME280;66218;48.928;9.140;2023-01-15T05:49:17;97234.53;;;33.82;57.27
77223;BME280;66218;48.928;9.140;2023-01-15T05:51:43;97236.38;;;34.82;54.71
77223;BME280;66218;48.928;9.140;2023-01-15T05:54:17;97246.50;;;43.02;12.64
77223;BME280;66218;48.928;9.140;2023-01-15T05:56:43;97251.03;;;45.71;9.02
77223;BME280;66218;48.928;9.140;2023-01-15T05:59:14;97251.09;;;42.98;8.75
77223;BME280;66218;48.928;9.140;2023-01-15T06:01:39;97248.31;;;49.80;7.17
77223;BME280;66218;48.928;9.140;2023-01-15T06:04:06;97233.47;;;49.55;4.92
77223;BME280;66218;48.928;9.140;2023-01-15T06:06:32;97226.56;;;49.35;6.52
77223;BME280;66218;48.928;9.140;2023-01-15T06:08:58;97228.56;;;45.88;6.42
77223;BME280;66218;48.928;9.140;2023-01-15T06:11:23;97243.63;;;38.83;11.41
77223;BME280;66218;48.928;9.140;2023-01-15T06:13:49;97227.81;;;37.20;13.69
77223;BME280;66218;48.928;9.140;2023-01-15T06:16:15;97228.25;;;37.41;12.40
77223;BME280;66218;48.928;9.140;2023-01-15T06:18:42;97231.81;;;37.77;12.59
77223;BME280;66218;48.928;9.140;2023-01-15T06:21:10;97230.00;;;35.20;14.39
77223;BME280;66218;48.928;9.140;2023-01-15T06:23:37;97243.78;;;40.33;11.52
77223;BME280;66218;48.928;9.140;2023-01-15T06:26:11;97248.91;;;39.10;11.79
77223;BME280;66218;48.928;9.140;2023-01-15T06:28:37;97241.50;;;39.75;10.63
77223;BME280;66218;48.928;9.140;2023-01-15T06:31:08;97253.31;;;43.29;9.38
77223;BME280;66218;48.928;9.140;2023-01-15T06:33:33;97263.09;;;43.06;7.99
77223;BME280;66218;48.928;9.140;2023-01-15T06:36:04;97261.56;;;41.28;9.15
77223;BME280;66218;48.928;9.140;2023-01-15T06:38:29;97283.75;;;51.40;4.42
77223;BME280;66218;48.928;9.140;2023-01-15T06:40:57;97292.66;;;43.81;6.97
77223;BME280;66218;48.928;9.140;2023-01-15T06:43:22;97321.16;;;47.19;5.49
77223;BME280;66218;48.928;9.140;2023-01-15T06:46:08;97295.28;;;46.47;5.95
77223;BME280;66218;48.928;9.140;2023-01-15T06:48:52;97313.25;;;52.69;2.24
77223;BME280;66218;48.928;9.140;2023-01-15T06:51:18;97295.94;;;49.82;3.88
77223;BME280;66218;48.928;9.140;2023-01-15T06:53:45;97304.44;;;49.13;3.63
77223;BME280;66218;48.928;9.140;2023-01-15T06:56:14;97326.78;;;45.11;5.83
77223;BME280;66218;48.928;9.140;2023-01-15T06:58:43;97414.66;;;16.80;43.56
77223;BME280;66218;48.928;9.140;2023-01-15T07:01:13;97324.59;;;17.15;44.05
77223;BME280;66218;48.928;9.140;2023-01-15T07:03:39;97354.16;;;16.15;46.20
77223;BME280;66218;48.928;9.140;2023-01-15T07:06:10;97358.66;;;15.41;46.32
77223;BME280;66218;48.928;9.140;2023-01-15T07:08:36;97376.13;;;17.25;42.46
77223;BME280;66218;48.928;9.140;2023-01-15T07:11:06;97390.16;;;17.26;43.71
77223;BME280;66218;48.928;9.140;2023-01-15T07:13:32;97396.91;;;16.33;44.64
77223;BME280;66218;48.928;9.140;2023-01-15T07:15:59;97393.13;;;16.12;44.63
77223;BME280;66218;48.928;9.140;2023-01-15T07:18:29;97407.00;;;17.09;42.96
77223;BME280;66218;48.928;9.140;2023-01-15T07:20:56;97397.94;;;16.49;43.41
77223;BME280;66218;48.928;9.140;2023-01-15T07:23:26;97386.19;;;17.22;41.91
77223;BME280;66218;48.928;9.140;2023-01-15T07:25:52;97409.91;;;16.43;43.95
77223;BME280;66218;48.928;9.140;2023-01-15T07:28:19;97400.63;;;18.03;40.28
77223;BME280;66218;48.928;9.140;2023-01-15T07:30:44;97392.50;;;18.05;39.02
77223;BME280;66218;48.928;9.140;2023-01-15T07:33:10;97412.72;;;16.25;43.45
77223;BME280;66218;48.928;9.140;2023-01-15T07:35:36;97431.66;;;18.01;39.93
77223;BME280;66218;48.928;9.140;2023-01-15T07:38:02;97437.41;;;18.05;38.56
77223;BME280;66218;48.928;9.140;2023-01-15T07:40:27;97417.25;;;17.81;39.47
77223;BME280;66218;48.928;9.140;2023-01-15T07:42:53;97424.44;;;17.65;40.77
77223;BME280;66218;48.928;9.140;2023-01-15T07:45:41;97432.03;;;19.10;37.69
77223;BME280;66218;48.928;9.140;2023-01-15T07:48:26;97424.47;;;19.36;38.33
77223;BME280;66218;48.928;9.140;2023-01-15T07:51:20;97419.75;;;19.31;36.73
77223;BME280;66218;48.928;9.140;2023-01-15T07:53:45;97432.44;;;20.91;34.72
77223;BME280;66218;48.928;9.140;2023-01-15T07:56:11;97431.97;;;21.09;33.06
77223;BME280;66218;48.928;9.140;2023-01-15T07:58:36;97458.13;;;18.16;39.56
77223;BME280;66218;48.928;9.140;2023-01-15T08:01:02;97464.31;;;19.78;35.89
77223;BME280;66218;48.928;9.140;2023-01-15T08:03:27;97429.63;;;19.73;35.72
77223;BME280;66218;48.928;9.140;2023-01-15T08:05:53;97462.72;;;21.03;34.30
77223;BME280;66218;48.928;9.140;2023-01-15T08:08:18;97461.38;;;20.86;34.54
77223;BME280;66218;48.928;9.140;2023-01-15T08:10:44;97463.75;;;20.33;34.66
77223;BME280;66218;48.928;9.140;2023-01-15T08:13:28;97437.22;;;21.02;32.73
77223;BME280;66218;48.928;9.140;2023-01-15T08:16:11;97479.13;;;21.13;32.97
77223;BME280;66218;48.928;9.140;2023-01-15T08:18:37;97458.53;;;21.15;34.05
77223;BME280;66218;48.928;9.140;2023-01-15T08:21:03;97489.50;;;22.17;31.53
77223;BME280;66218;48.928;9.140;2023-01-15T08:23:28;97492.22;;;20.94;33.41
77223;BME280;66218;48.928;9.140;2023-01-15T08:25:54;97483.44;;;21.49;33.35
77223;BME280;66218;48.928;9.140;2023-01-15T08:28:22;97485.97;;;21.57;32.20
77223;BME280;66218;48.928;9.140;2023-01-15T08:30:48;97488.53;;;19.31;35.36
77223;BME280;66218;48.928;9.140;2023-01-15T08:33:13;97501.69;;;19.39;37.43
77223;BME280;66218;48.928;9.140;2023-01-15T08:35:38;97509.47;;;20.41;33.98
77223;BME280;66218;48.928;9.140;2023-01-15T08:38:07;97521.31;;;19.59;34.83
77223;BME280;66218;48.928;9.140;2023-01-15T08:40:33;97527.38;;;17.95;37.72
77223;BME280;66218;48.928;9.140;2023-01-15T08:43:00;97526.75;;;17.93;37.57
77223;BME280;66218;48.928;9.140;2023-01-15T08:45:25;97524.53;;;20.20;34.19
77223;BME280;66218;48.928;9.140;2023-01-15T08:47:54;97521.03;;;19.40;35.28
77223;BME280;66218;48.928;9.140;2023-01-15T08:50:20;97531.94;;;18.09;39.86
77223;BME280;66218;48.928;9.140;2023-01-15T08:52:45;97544.00;;;18.12;39.01
77223;BME280;66218;48.928;9.140;2023-01-15T08:55:11;97553.03;;;16.76;41.13
77223;BME280;66218;48.928;9.140;2023-01-15T08:57:36;97542.41;;;18.79;38.00
77223;BME280;66218;48.928;9.140;2023-01-15T09:00:03;97568.19;;;17.06;40.83
77223;BME280;66218;48.928;9.140;2023-01-15T09:02:29;97558.47;;;18.16;37.77
77223;BME280;66218;48.928;9.140;2023-01-15T09:04:54;97564.56;;;20.10;35.22
77223;BME280;66218;48.928;9.140;2023-01-15T09:07:19;97571.03;;;19.49;35.25
77223;BME280;66218;48.928;9.140;2023-01-15T09:09:45;97550.69;;;19.93;34.63
77223;BME280;66218;48.928;9.140;2023-01-15T09:12:10;97574.63;;;33.38;21.67
77223;BME280;66218;48.928;9.140;2023-01-15T09:14:36;97588.81;;;35.12;14.21
77223;BME280;66218;48.928;9.140;2023-01-15T09:17:01;97587.97;;;36.84;12.13
77223;BME280;66218;48.928;9.140;2023-01-15T09:19:26;97585.22;;;34.73;13.44
77223;BME280;66218;48.928;9.140;2023-01-15T09:21:52;97580.75;;;34.34;13.57
77223;BME280;66218;48.928;9.140;2023-01-15T09:24:17;97590.69;;;31.69;16.10
77223;BME280;66218;48.928;9.140;2023-01-15T09:26:42;97585.91;;;34.99;13.59
77223;BME280;66218;48.928;9.140;2023-01-15T09:29:09;97592.75;;;28.57;18.44
77223;BME280;66218;48.928;9.140;2023-01-15T09:31:35;97600.03;;;29.95;17.05
77223;BME280;66218;48.928;9.140;2023-01-15T09:34:01;97612.72;;;34.47;13.31
77223;BME280;66218;48.928;9.140;2023-01-15T09:36:30;97635.69;;;32.37;14.91
77223;BME280;66218;48.928;9.140;2023-01-15T09:38:56;97655.72;;;9.24;62.87
77223;BME280;66218;48.928;9.140;2023-01-15T09:41:24;97650.78;;;8.03;70.69
77223;BME280;66218;48.928;9.140;2023-01-15T09:49:48;97661.22;;;8.39;72.28
77223;BME280;66218;48.928;9.140;2023-01-15T09:57:18;97674.09;;;8.40;73.41
77223;BME280;66218;48.928;9.140;2023-01-15T09:59:46;97692.09;;;8.67;73.24
77223;BME280;66218;48.928;9.140;2023-01-15T10:02:31;97685.94;;;9.03;71.48
77223;BME280;66218;48.928;9.140;2023-01-15T10:05:08;97678.22;;;9.25;71.19
77223;BME280;66218;48.928;9.140;2023-01-15T10:07:41;97699.94;;;8.54;72.03
77223;BME280;66218;48.928;9.140;2023-01-15T10:10:16;97695.06;;;8.50;71.68
77223;BME280;66218;48.928;9.140;2023-01-15T10:12:44;97704.91;;;8.34;71.38
77223;BME280;66218;48.928;9.140;2023-01-15T10:17:40;97709.50;;;8.77;69.78
77223;BME280;66218;48.928;9.140;2023-01-15T10:20:17;97717.91;;;8.57;69.10
77223;BME280;66218;48.928;9.140;2023-01-15T10:26:23;97714.88;;;8.63;68.97
77223;BME280;66218;48.928;9.140;2023-01-15T10:31:21;97733.47;;;8.46;70.62
77223;BME280;66218;48.928;9.140;2023-01-15T10:36:45;97749.31;;;8.18;68.81
77223;BME280;66218;48.928;9.140;2023-01-15T10:44:33;97729.38;;;8.55;69.92
77223;BME280;66218;48.928;9.140;2023-01-15T10:47:02;97731.22;;;8.65;72.14
77223;BME280;66218;48.928;9.140;2023-01-15T10:49:29;97742.13;;;8.70;70.12
77223;BME280;66218;48.928;9.140;2023-01-15T10:52:04;97767.75;;;8.64;68.57
77223;BME280;66218;48.928;9.140;2023-01-15T10:54:41;97760.84;;;9.34;70.58
77223;BME280;66218;48.928;9.140;2023-01-15T10:57:11;97752.22;;;9.10;69.26
77223;BME280;66218;48.928;9.140;2023-01-15T10:59:41;97785.91;;;8.76;69.47
77223;BME280;66218;48.928;9.140;2023-01-15T11:02:31;97785.75;;;8.91;69.50
77223;BME280;66218;48.928;9.140;2023-01-15T11:05:00;97784.81;;;8.55;68.38
77223;BME280;66218;48.928;9.140;2023-01-15T11:07:38;97781.25;;;7.95;69.33
77223;BME280;66218;48.928;9.140;2023-01-15T11:10:07;97766.28;;;8.60;69.95
77223;BME280;66218;48.928;9.140;2023-01-15T11:12:36;97783.50;;;8.00;68.75
77223;BME280;66218;48.928;9.140;2023-01-15T11:15:25;97785.09;;;8.63;69.73
77223;BME280;66218;48.928;9.140;2023-01-15T11:18:38;97786.72;;;8.41;68.93
77223;BME280;66218;48.928;9.140;2023-01-15T11:21:23;97798.00;;;8.65;67.23
77223;BME280;66218;48.928;9.140;2023-01-15T11:23:49;97806.88;;;9.10;65.31
77223;BME280;66218;48.928;9.140;2023-01-15T11:26:25;97809.03;;;7.43;70.06
77223;BME280;66218;48.928;9.140;2023-01-15T11:28:52;97814.53;;;7.51;73.14
77223;BME280;66218;48.928;9.140;2023-01-15T11:31:18;97810.19;;;7.51;71.94
77223;BME280;66218;48.928;9.140;2023-01-15T11:33:56;97808.03;;;8.46;69.01
77223;BME280;66218;48.928;9.140;2023-01-15T11:36:25;97816.47;;;8.12;69.75
77223;BME280;66218;48.928;9.140;2023-01-15T11:38:51;97810.50;;;7.20;72.16
77223;BME280;66218;48.928;9.140;2023-01-15T11:43:55;97705.28;;;6.10;74.71
77223;BME280;66218;48.928;9.140;2023-01-15T11:46:40;97793.66;;;6.87;76.19
77223;BME280;66218;48.928;9.140;2023-01-15T11:49:24;97806.16;;;7.21;75.50
77223;BME280;66218;48.928;9.140;2023-01-15T11:52:15;97788.31;;;6.90;74.40
77223;BME280;66218;48.928;9.140;2023-01-15T11:54:44;97804.44;;;7.07;74.70
77223;BME280;66218;48.928;9.140;2023-01-15T11:57:30;97805.66;;;6.75;73.99
77223;BME280;66218;48.928;9.140;2023-01-15T11:59:57;97811.56;;;7.18;74.40
77223;BME280;66218;48.928;9.140;2023-01-15T12:04:51;97804.94;;;7.39;73.74
77223;BME280;66218;48.928;9.140;2023-01-15T12:07:18;97795.09;;;7.44;73.20
77223;BME280;66218;48.928;9.140;2023-01-15T12:10:24;97793.63;;;7.27;74.34
77223;BME280;66218;48.928;9.140;2023-01-15T12:16:04;97773.84;;;7.51;72.13
77223;BME280;66218;48.928;9.140;2023-01-15T12:18:56;97785.38;;;7.60;72.77
77223;BME280;66218;48.928;9.140;2023-01-15T12:21:46;97779.25;;;7.61;71.27
77223;BME280;66218;48.928;9.140;2023-01-15T12:29:50;97791.31;;;8.00;69.41
77223;BME280;66218;48.928;9.140;2023-01-15T12:32:27;97789.66;;;7.99;70.11
77223;BME280;66218;48.928;9.140;2023-01-15T12:35:02;97792.75;;;7.91;70.83
77223;BME280;66218;48.928;9.140;2023-01-15T12:37:41;97797.25;;;8.27;69.67
77223;BME280;66218;48.928;9.140;2023-01-15T12:40:29;97808.13;;;8.19;69.92
77223;BME280;66218;48.928;9.140;2023-01-15T12:42:57;97806.88;;;8.12;68.22
77223;BME280;66218;48.928;9.140;2023-01-15T12:45:48;97826.97;;;8.35;68.90
77223;BME280;66218;48.928;9.140;2023-01-15T12:48:28;97834.22;;;8.18;68.25
77223;BME280;66218;48.928;9.140;2023-01-15T12:50:59;97812.59;;;8.42;68.13
77223;BME280;66218;48.928;9.140;2023-01-15T12:58:53;97821.72;;;8.97;66.61
77223;BME280;66218;48.928;9.140;2023-01-15T13:10:01;97840.28;;;8.92;62.00
77223;BME280;66218;48.928;9.140;2023-01-15T13:12:32;97825.25;;;9.43;65.52
77223;BME280;66218;48.928;9.140;2023-01-15T13:14:58;97836.72;;;9.64;63.74
77223;BME280;66218;48.928;9.140;2023-01-15T13:25:40;97827.78;;;9.79;62.07
77223;BME280;66218;48.928;9.140;2023-01-15T13:34:01;97844.44;;;9.42;60.10
77223;BME280;66218;48.928;9.140;2023-01-15T13:36:34;97858.47;;;9.52;62.29
77223;BME280;66218;48.928;9.140;2023-01-15T13:39:05;97836.16;;;9.48;61.28
77223;BME280;66218;48.928;9.140;2023-01-15T13:41:35;97857.69;;;9.39;60.72
77223;BME280;66218;48.928;9.140;2023-01-15T13:44:21;97841.06;;;9.52;61.31
77223;BME280;66218;48.928;9.140;2023-01-15T13:46:59;97853.41;;;9.38;61.23
77223;BME280;66218;48.928;9.140;2023-01-15T13:49:31;97843.72;;;9.16;60.47
77223;BME280;66218;48.928;9.140;2023-01-15T13:51:59;97849.13;;;9.26;61.45
77223;BME280;66218;48.928;9.140;2023-01-15T13:54:30;97843.53;;;9.19;61.08
77223;BME280;66218;48.928;9.140;2023-01-15T13:57:09;97854.13;;;9.16;61.04
77223;BME280;66218;48.928;9.140;2023-01-15T14:02:00;97858.41;;;9.41;59.99
77223;BME280;66218;48.928;9.140;2023-01-15T14:04:35;97854.25;;;9.38;60.48
77223;BME280;66218;48.928;9.140;2023-01-15T14:07:01;97868.22;;;9.37;59.28
77223;BME280;66218;48.928;9.140;2023-01-15T14:09:28;97858.53;;;9.39;59.53
77223;BME280;66218;48.928;9.140;2023-01-15T14:20:25;97870.81;;;9.37;59.07
77223;BME280;66218;48.928;9.140;2023-01-15T14:26:47;97884.00;;;9.47;58.98
77223;BME280;66218;48.928;9.140;2023-01-15T14:28:56;97888.19;;;9.49;58.84
77223;BME280;66218;48.928;9.140;2023-01-15T14:36:29;97879.63;;;9.47;57.40
77223;BME280;66218;48.928;9.140;2023-01-15T14:39:01;97865.28;;;9.42;57.13
77223;BME280;66218;48.928;9.140;2023-01-15T14:41:33;97864.38;;;9.54;57.63
77223;BME280;66218;48.928;9.140;2023-01-15T14:44:28;97862.06;;;9.38;57.00
77223;BME280;66218;48.928;9.140;2023-01-15T14:46:59;97851.84;;;9.24;56.84
77223;BME280;66218;48.928;9.140;2023-01-15T14:49:29;97865.28;;;9.18;58.05
77223;BME280;66218;48.928;9.140;2023-01-15T14:51:54;97865.72;;;9.12;57.50
77223;BME280;66218;48.928;9.140;2023-01-15T14:54:20;97879.03;;;9.08;57.67
77223;BME280;66218;48.928;9.140;2023-01-15T14:56:51;97884.75;;;9.13;58.84
77223;BME280;66218;48.928;9.140;2023-01-15T14:59:24;97894.03;;;9.17;59.05
77223;BME280;66218;48.928;9.140;2023-01-15T15:01:53;97879.97;;;9.19;59.32
77223;BME280;66218;48.928;9.140;2023-01-15T15:04:31;97889.88;;;9.14;58.86
77223;BME280;66218;48.928;9.140;2023-01-15T15:07:12;97897.25;;;9.20;58.54